createdAt,value
2023-04-19T00:02:14.219Z,11.13
2023-04-19T00:04:41.871Z,10.88
2023-04-19T00:07:09.040Z,10.65
2023-04-19T00:09:36.150Z,11.55
2023-04-19T00:12:03.951Z,10.95
2023-04-19T00:14:31.264Z,11.63
2023-04-19T00:16:58.502Z,11.85
2023-04-19T00:19:26.173Z,11.80
2023-04-19T00:21:53.264Z,12.43
2023-04-19T00:24:20.467Z,11.55
2023-04-19T00:26:47.519Z,12.18
2023-04-19T00:29:14.601Z,12.00
2023-04-19T00:31:41.727Z,11.77
2023-04-19T00:34:08.828Z,12.30
2023-04-19T00:36:35.990Z,12.40
2023-04-19T00:39:03.354Z,12.85
2023-04-19T00:41:30.619Z,13.63
2023-04-19T00:43:57.702Z,12.98
2023-04-19T00:46:25.916Z,12.65
2023-04-19T00:48:53.573Z,13.95
2023-04-19T00:51:20.949Z,13.50
2023-04-19T00:53:49.509Z,13.88
2023-04-19T00:56:17.943Z,12.90
2023-04-19T00:58:48.937Z,12.98
2023-04-19T01:01:16.214Z,13.48
2023-04-19T01:03:43.528Z,15.20
2023-04-19T01:06:11.082Z,13.82
2023-04-19T01:08:38.208Z,14.52
2023-04-19T01:11:05.832Z,14.07
2023-04-19T01:13:32.903Z,14.75
2023-04-19T01:16:01.020Z,15.07
2023-04-19T01:18:32.922Z,15.05
2023-04-19T01:21:00.093Z,13.38
2023-04-19T01:23:27.155Z,14.95
2023-04-19T01:25:54.185Z,14.27
2023-04-19T01:28:21.362Z,15.35
2023-04-19T01:30:51.197Z,15.95
2023-04-19T01:33:18.362Z,14.20
2023-04-19T01:35:45.509Z,15.18
2023-04-19T01:38:12.640Z,15.88
2023-04-19T01:40:39.816Z,15.75
2023-04-19T01:43:08.070Z,15.50
2023-04-19T01:45:36.297Z,16.63
2023-04-19T01:48:04.776Z,16.38
2023-04-19T01:50:32.535Z,16.02
2023-04-19T01:53:00.733Z,15.70
2023-04-19T01:55:29.359Z,16.73
2023-04-19T01:57:56.482Z,16.33
2023-04-19T02:00:23.833Z,15.93
2023-04-19T02:02:51.078Z,16.48
2023-04-19T02:05:18.374Z,17.05
2023-04-19T02:07:45.466Z,16.40
2023-04-19T02:10:12.628Z,16.13
2023-04-19T02:12:41.229Z,17.05
2023-04-19T02:15:08.919Z,16.67
2023-04-19T02:17:36.278Z,16.33
2023-04-19T02:20:04.783Z,17.25
2023-04-19T02:22:32.696Z,16.58
2023-04-19T02:24:59.775Z,16.60
2023-04-19T02:27:26.861Z,15.95
2023-04-19T02:29:54.019Z,16.63
2023-04-19T02:32:21.160Z,17.20
2023-04-19T02:34:48.194Z,16.38
2023-04-19T02:37:15.264Z,18.13
2023-04-19T02:39:42.724Z,17.13
2023-04-19T02:42:09.812Z,17.60
2023-04-19T02:44:36.924Z,16.80
2023-04-19T02:47:04.147Z,16.20
2023-04-19T02:49:36.996Z,17.23
2023-04-19T02:52:04.358Z,18.85
2023-04-19T02:54:33.312Z,17.80
2023-04-19T02:57:01.199Z,18.17
2023-04-19T02:59:28.296Z,18.15
2023-04-19T03:01:55.633Z,18.08
2023-04-19T03:04:22.885Z,18.13
2023-04-19T03:06:51.151Z,17.15
2023-04-19T03:09:18.236Z,17.25
2023-04-19T03:11:45.377Z,19.17
2023-04-19T03:14:12.457Z,17.48
2023-04-19T03:16:39.669Z,17.25
2023-04-19T03:19:06.756Z,18.63
2023-04-19T03:21:33.855Z,18.90
2023-04-19T03:24:02.017Z,17.25
2023-04-19T03:26:29.095Z,19.52
2023-04-19T03:28:56.187Z,18.35
2023-04-19T03:31:23.278Z,19.00
2023-04-19T03:33:50.928Z,18.35
2023-04-19T03:36:18.019Z,19.27
2023-04-19T03:38:45.078Z,20.08
2023-04-19T03:41:22.734Z,19.17
2023-04-19T03:43:49.895Z,19.65
2023-04-19T03:46:17.163Z,19.30
2023-04-19T03:48:44.709Z,19.65
2023-04-19T03:51:13.402Z,19.15
2023-04-19T03:53:40.534Z,18.67
2023-04-19T03:56:07.945Z,20.20
2023-04-19T03:58:35.234Z,21.02
2023-04-19T04:01:02.798Z,20.40
2023-04-19T04:03:30.705Z,20.60
2023-04-19T04:05:57.941Z,21.08
2023-04-19T04:08:24.972Z,20.83
2023-04-19T04:10:54.168Z,21.63
2023-04-19T04:13:21.269Z,20.42
2023-04-19T04:15:48.378Z,21.23
2023-04-19T04:18:16.363Z,22.55
2023-04-19T04:20:44.660Z,21.42
2023-04-19T04:23:11.860Z,22.40
2023-04-19T04:25:39.261Z,22.00
2023-04-19T04:28:06.948Z,22.95
2023-04-19T04:30:34.403Z,23.73
2023-04-19T04:33:01.554Z,24.48
2023-04-19T04:35:30.085Z,24.50
2023-04-19T04:37:57.213Z,25.15
2023-04-19T04:40:24.423Z,23.63
2023-04-19T04:42:53.020Z,24.98
2023-04-19T04:45:20.248Z,25.98
2023-04-19T04:47:47.854Z,26.83
2023-04-19T04:50:14.992Z,26.88
2023-04-19T04:52:42.049Z,27.25
2023-04-19T04:55:09.710Z,28.10
2023-04-19T04:57:36.825Z,28.00
2023-04-19T05:00:06.978Z,28.95
2023-04-19T05:02:34.176Z,28.13
2023-04-19T05:05:01.470Z,28.40
2023-04-19T05:07:28.627Z,25.98
2023-04-19T05:09:55.749Z,28.40
2023-04-19T05:12:22.859Z,27.50
2023-04-19T05:14:50.002Z,27.58
2023-04-19T05:17:17.061Z,28.88
2023-04-19T05:19:44.471Z,28.30
2023-04-19T05:22:11.679Z,27.20
2023-04-19T05:24:40.518Z,28.50
2023-04-19T05:27:09.733Z,28.38
2023-04-19T05:29:36.910Z,26.48
2023-04-19T05:32:04.016Z,27.35
2023-04-19T05:34:31.564Z,28.65
2023-04-19T05:36:58.683Z,28.27
2023-04-19T05:39:25.837Z,27.98
2023-04-19T05:41:52.885Z,29.63
2023-04-19T05:44:19.927Z,28.30
2023-04-19T05:46:46.984Z,27.95
2023-04-19T05:49:14.082Z,27.45
2023-04-19T05:51:42.285Z,28.15
2023-04-19T05:54:12.616Z,28.85
2023-04-19T05:56:40.040Z,26.67
2023-04-19T05:59:08.410Z,30.30
2023-04-19T06:01:35.585Z,27.63
2023-04-19T06:04:03.130Z,26.60
2023-04-19T06:06:30.431Z,29.00
2023-04-19T06:08:57.507Z,28.45
2023-04-19T06:11:34.784Z,28.33
2023-04-19T06:14:06.403Z,26.92
2023-04-19T06:16:33.546Z,28.13
2023-04-19T06:19:01.053Z,27.95
2023-04-19T06:21:31.739Z,28.52
2023-04-19T06:23:58.956Z,28.75
2023-04-19T06:26:26.367Z,27.23
2023-04-19T06:28:53.658Z,28.42
2023-04-19T06:31:20.841Z,27.85
2023-04-19T06:33:47.924Z,28.13
2023-04-19T06:36:15.044Z,26.55
2023-04-19T06:38:44.468Z,26.30
2023-04-19T06:41:11.863Z,28.20
2023-04-19T06:43:42.881Z,27.73
2023-04-19T06:46:10.187Z,28.42
2023-04-19T06:48:37.960Z,27.30
2023-04-19T06:51:05.261Z,27.90
2023-04-19T06:53:32.646Z,25.98
2023-04-19T06:56:06.797Z,26.25
2023-04-19T06:58:35.084Z,27.13
2023-04-19T07:01:04.926Z,27.15
2023-04-19T07:03:32.426Z,27.83
2023-04-19T07:05:59.929Z,26.48
2023-04-19T07:08:35.014Z,26.25
2023-04-19T07:11:06.198Z,26.65
2023-04-19T07:13:35.392Z,27.70
2023-04-19T07:16:05.723Z,26.65
2023-04-19T07:18:32.999Z,25.55
2023-04-19T07:21:00.111Z,25.13
2023-04-19T07:23:27.192Z,25.02
2023-04-19T07:25:54.230Z,24.27
2023-04-19T07:28:21.447Z,19.92
2023-04-19T07:30:48.573Z,20.00
2023-04-19T07:33:16.215Z,19.25
2023-04-19T07:35:43.456Z,20.25
2023-04-19T07:38:10.449Z,19.75
2023-04-19T07:40:37.637Z,18.83
2023-04-19T07:43:04.809Z,19.65
2023-04-19T07:45:31.878Z,18.13
2023-04-19T07:47:59.001Z,19.77
2023-04-19T07:50:27.388Z,21.08
2023-04-19T07:52:54.821Z,19.83
2023-04-19T07:55:22.239Z,20.73
2023-04-19T07:57:50.218Z,20.70
2023-04-19T08:00:21.726Z,22.33
2023-04-19T08:02:49.869Z,21.45
2023-04-19T08:05:17.792Z,22.50
2023-04-19T08:07:45.798Z,20.92
2023-04-19T08:10:13.246Z,19.98
2023-04-19T08:12:50.432Z,20.08
2023-04-19T08:16:05.247Z,21.20
2023-04-19T08:18:11.607Z,21.05
2023-04-19T08:20:38.694Z,21.85
2023-04-19T08:23:18.087Z,20.98
2023-04-19T08:25:49.922Z,22.65
2023-04-19T08:28:18.449Z,20.58
2023-04-19T08:30:45.692Z,21.27
2023-04-19T08:33:12.854Z,20.70
2023-04-19T08:35:41.521Z,20.65
2023-04-19T08:38:09.709Z,18.95
2023-04-19T08:40:47.704Z,20.55
2023-04-19T08:43:17.899Z,21.05
2023-04-19T08:45:50.706Z,20.27
2023-04-19T08:48:20.464Z,20.10
2023-04-19T08:51:04.214Z,21.85
2023-04-19T08:53:35.716Z,20.67
2023-04-19T09:01:12.843Z,20.15
2023-04-19T09:04:02.416Z,21.00
2023-04-19T09:06:39.323Z,21.20
2023-04-19T09:09:33.075Z,20.98
2023-04-19T09:12:02.959Z,17.00
2023-04-19T09:14:30.174Z,18.38
2023-04-19T09:17:16.754Z,16.15
2023-04-19T09:19:51.149Z,15.27
2023-04-19T09:22:18.939Z,14.38
2023-04-19T09:27:39.848Z,13.32
2023-04-19T09:30:12.700Z,14.18
2023-04-19T09:32:49.540Z,14.10
2023-04-19T09:35:17.087Z,13.93
2023-04-19T09:38:05.572Z,13.75
2023-04-19T09:40:34.217Z,12.18
2023-04-19T09:43:22.959Z,12.52
2023-04-19T09:45:51.056Z,10.45
2023-04-19T09:48:18.125Z,8.50
2023-04-19T09:51:07.404Z,10.38
2023-04-19T09:53:40.746Z,9.73
2023-04-19T09:56:09.960Z,9.25
2023-04-19T09:58:50.853Z,7.75
2023-04-19T10:01:22.241Z,7.85
2023-04-19T10:03:51.232Z,8.13
2023-04-19T10:08:53.582Z,8.73
2023-04-19T10:11:22.703Z,9.75
2023-04-19T10:13:56.152Z,9.98
2023-04-19T10:16:23.658Z,10.02
2023-04-19T10:18:52.432Z,9.90
2023-04-19T10:21:20.820Z,9.98
2023-04-19T10:23:48.663Z,10.25
2023-04-19T10:26:16.167Z,11.05
2023-04-19T10:28:43.246Z,11.25
2023-04-19T10:31:13.627Z,11.20
2023-04-19T10:33:41.765Z,12.40
2023-04-19T10:36:14.215Z,11.48
2023-04-19T10:38:49.570Z,10.77
2023-04-19T10:41:19.252Z,9.95
2023-04-19T10:43:55.370Z,9.48
2023-04-19T10:46:22.538Z,9.63
2023-04-19T10:49:07.930Z,9.55
2023-04-19T10:51:47.676Z,11.10
2023-04-19T10:54:35.838Z,10.32
2023-04-19T10:57:05.326Z,10.75
2023-04-19T10:59:35.576Z,10.45
2023-04-19T11:02:26.206Z,9.57
2023-04-19T11:04:53.448Z,10.82
2023-04-19T11:07:23.631Z,11.73
2023-04-19T11:09:51.922Z,11.70
2023-04-19T11:12:21.290Z,9.98
2023-04-19T11:14:53.930Z,9.80
2023-04-19T11:17:31.370Z,8.23
2023-04-19T11:20:08.541Z,8.27
2023-04-19T11:22:39.591Z,7.15
2023-04-19T11:25:20.925Z,7.45
2023-04-19T11:27:51.084Z,7.85
2023-04-19T11:30:22.591Z,8.15
2023-04-19T11:32:51.162Z,7.72
2023-04-19T11:35:27.147Z,6.90
2023-04-19T11:37:56.485Z,7.40
2023-04-19T11:40:28.342Z,6.43
2023-04-19T11:43:04.997Z,6.70
2023-04-19T11:45:39.507Z,6.38
2023-04-19T11:48:14.609Z,6.88
2023-04-19T11:50:44.858Z,7.13
2023-04-19T11:53:27.187Z,6.18
2023-04-19T11:56:03.893Z,6.03
2023-04-19T11:58:40.079Z,6.70
2023-04-19T12:01:10.711Z,5.82
2023-04-19T12:03:48.933Z,6.53
2023-04-19T12:06:31.989Z,7.00
2023-04-19T12:08:59.360Z,7.07
2023-04-19T12:11:43.607Z,7.35
2023-04-19T12:14:21.466Z,6.53
2023-04-19T12:17:12.347Z,6.50
2023-04-19T12:19:47.601Z,6.32
2023-04-19T12:22:19.820Z,7.10
2023-04-19T12:24:47.485Z,5.93
2023-04-19T12:27:18.252Z,6.50
2023-04-19T12:29:46.208Z,7.00
2023-04-19T12:32:15.771Z,6.65
2023-04-19T12:34:43.178Z,7.43
2023-04-19T12:37:10.304Z,7.13
2023-04-19T12:39:37.502Z,6.90
2023-04-19T12:42:06.276Z,6.65
2023-04-19T12:44:33.486Z,7.00
2023-04-19T12:47:00.677Z,6.65
2023-04-19T12:49:27.757Z,5.93
2023-04-19T12:51:57.008Z,6.75
2023-04-19T12:54:24.559Z,6.95
2023-04-19T12:56:51.816Z,6.60
2023-04-19T12:59:19.331Z,6.55
2023-04-19T13:01:46.722Z,6.82
2023-04-19T13:04:14.067Z,6.40
2023-04-19T13:06:42.746Z,7.30
2023-04-19T13:11:39.993Z,8.23
2023-04-19T13:14:07.173Z,7.30
2023-04-19T13:16:34.354Z,7.18
2023-04-19T13:19:01.702Z,8.40
2023-04-19T13:21:28.815Z,8.70
2023-04-19T13:23:58.063Z,8.02
2023-04-19T13:26:25.636Z,8.15
2023-04-19T13:28:53.433Z,8.10
2023-04-19T13:31:20.661Z,8.23
2023-04-19T13:33:47.799Z,8.35
2023-04-19T13:36:14.984Z,7.30
2023-04-19T13:38:42.173Z,7.47
2023-04-19T13:41:09.671Z,7.38
2023-04-19T13:43:36.785Z,7.80
2023-04-19T13:46:03.942Z,7.90
2023-04-19T13:48:31.429Z,7.60
2023-04-19T13:50:59.758Z,7.70
2023-04-19T13:53:29.317Z,7.50
2023-04-19T13:55:57.188Z,7.45
2023-04-19T13:58:25.041Z,8.95
2023-04-19T14:00:53.812Z,8.20
2023-04-19T14:03:24.134Z,7.50
2023-04-19T14:05:51.430Z,7.97
2023-04-19T14:08:18.584Z,7.03
2023-04-19T14:10:45.962Z,7.85
2023-04-19T14:13:13.041Z,7.65
2023-04-19T14:15:40.449Z,7.72
2023-04-19T14:18:07.813Z,7.82
2023-04-19T14:20:34.982Z,6.60
2023-04-19T14:23:02.143Z,7.03
2023-04-19T14:25:29.370Z,6.57
2023-04-19T14:27:56.489Z,6.75
2023-04-19T14:30:25.970Z,8.07
2023-04-19T14:32:53.283Z,7.50
2023-04-19T14:35:20.592Z,6.82
2023-04-19T14:37:47.714Z,5.20
2023-04-19T14:40:14.954Z,4.90
2023-04-19T14:42:42.196Z,5.13
2023-04-19T14:45:09.804Z,5.10
2023-04-19T14:47:36.954Z,4.90
2023-04-19T14:50:04.284Z,5.53
2023-04-19T14:52:31.667Z,5.68
2023-04-19T14:55:00.092Z,5.32
2023-04-19T14:57:30.286Z,5.30
2023-04-19T14:59:58.473Z,5.93
2023-04-19T15:02:26.053Z,5.75
2023-04-19T15:04:54.207Z,6.18
2023-04-19T15:07:21.851Z,5.63
2023-04-19T15:09:49.074Z,6.57
2023-04-19T15:12:16.273Z,4.57
2023-04-19T15:14:43.347Z,5.07
2023-04-19T15:17:10.643Z,5.07
2023-04-19T15:19:39.222Z,5.30
2023-04-19T15:22:06.516Z,5.07
2023-04-19T15:24:36.466Z,4.78
2023-04-19T15:27:04.090Z,5.15
2023-04-19T15:29:31.241Z,5.50
2023-04-19T15:31:58.444Z,5.03
2023-04-19T15:34:25.688Z,4.40
2023-04-19T15:36:52.821Z,4.30
2023-04-19T15:39:19.940Z,4.10
2023-04-19T15:41:47.066Z,4.75
2023-04-19T15:44:14.752Z,4.43
2023-04-19T15:46:41.861Z,5.15
2023-04-19T15:49:09.035Z,4.50
2023-04-19T15:51:36.306Z,4.50
2023-04-19T15:54:03.928Z,4.53
2023-04-19T15:56:31.314Z,4.68
2023-04-19T15:58:58.466Z,4.82
2023-04-19T16:01:25.607Z,5.00
2023-04-19T16:03:52.984Z,4.68
2023-04-19T16:06:20.226Z,5.20
2023-04-19T16:08:47.304Z,5.25
2023-04-19T16:11:14.437Z,4.68
2023-04-19T16:13:41.524Z,4.38
2023-04-19T16:16:08.627Z,4.65
2023-04-19T16:18:35.972Z,5.13
2023-04-19T16:21:04.016Z,4.68
2023-04-19T16:23:31.251Z,4.72
2023-04-19T16:25:58.339Z,4.43
2023-04-19T16:28:25.809Z,4.38
2023-04-19T16:30:53.006Z,4.05
2023-04-19T16:33:20.697Z,4.05
2023-04-19T16:35:51.277Z,4.40
2023-04-19T16:38:18.467Z,4.20
2023-04-19T16:40:47.852Z,5.00
2023-04-19T16:43:15.013Z,4.35
2023-04-19T16:45:42.989Z,3.53
2023-04-19T16:48:10.651Z,4.25
2023-04-19T16:50:38.237Z,4.13
2023-04-19T16:53:05.796Z,4.55
2023-04-19T16:55:33.108Z,4.53
2023-04-19T16:58:00.718Z,3.70
2023-04-19T17:00:27.964Z,4.22
2023-04-19T17:02:55.288Z,3.97
2023-04-19T17:05:22.756Z,4.28
2023-04-19T17:07:51.686Z,3.95
2023-04-19T17:10:19.183Z,4.03
2023-04-19T17:12:46.648Z,4.00
2023-04-19T17:15:14.574Z,4.35
2023-04-19T17:17:43.148Z,4.50
2023-04-19T17:20:10.928Z,4.57
2023-04-19T17:22:38.142Z,4.85
2023-04-19T17:25:06.086Z,5.00
2023-04-19T17:27:33.704Z,4.97
2023-04-19T17:30:00.897Z,5.10
2023-04-19T17:32:28.065Z,5.57
2023-04-19T17:34:55.613Z,5.03
2023-04-19T17:37:22.940Z,5.10
2023-04-19T17:39:50.778Z,5.00
2023-04-19T17:42:18.652Z,5.35
2023-04-19T17:44:48.153Z,5.28
2023-04-19T17:47:16.332Z,4.95
2023-04-19T17:49:46.776Z,5.18
2023-04-19T17:52:14.979Z,5.22
2023-04-19T17:54:43.785Z,5.38
2023-04-19T17:57:11.334Z,5.05
2023-04-19T17:59:40.046Z,5.68
2023-04-19T18:02:10.149Z,5.55
2023-04-19T18:04:39.914Z,5.30
2023-04-19T18:07:07.893Z,5.80
2023-04-19T18:09:35.775Z,5.45
2023-04-19T18:12:04.106Z,6.10
2023-04-19T18:14:34.779Z,5.38
2023-04-19T18:17:03.599Z,5.43
2023-04-19T18:19:34.608Z,5.35
2023-04-19T18:22:02.771Z,5.45
2023-04-19T18:24:30.663Z,5.50
2023-04-19T18:27:01.162Z,5.28
2023-04-19T18:29:31.136Z,5.45
2023-04-19T18:31:59.375Z,5.55
2023-04-19T18:34:27.182Z,5.63
2023-04-19T18:37:04.023Z,5.55
2023-04-19T18:39:32.200Z,5.82
2023-04-19T18:42:00.707Z,5.18
2023-04-19T18:44:44.043Z,5.10
2023-04-19T18:47:18.078Z,4.55
2023-04-19T18:49:55.695Z,4.80
2023-04-19T18:52:31.328Z,5.13
2023-04-19T18:55:00.510Z,5.40
2023-04-19T18:57:28.212Z,5.20
2023-04-19T18:59:59.835Z,5.00
2023-04-19T19:02:28.153Z,5.85
2023-04-19T19:05:01.076Z,5.88
2023-04-19T19:07:36.284Z,5.72
2023-04-19T19:12:40.708Z,5.80
2023-04-19T19:15:10.086Z,6.43
2023-04-19T19:17:38.660Z,5.78
2023-04-19T19:20:08.395Z,6.18
2023-04-19T19:22:37.385Z,6.60
2023-04-19T19:25:07.074Z,6.15
2023-04-19T19:27:35.757Z,6.18
2023-04-19T19:30:05.400Z,6.68
2023-04-19T19:32:33.524Z,6.35
2023-04-19T19:35:07.362Z,6.10
2023-04-19T19:37:38.109Z,5.68
2023-04-19T19:40:11.116Z,5.82
2023-04-19T19:42:39.752Z,6.05
2023-04-19T19:45:10.054Z,5.65
2023-04-19T19:47:45.287Z,6.60
2023-04-19T19:51:01.044Z,6.63
2023-04-19T19:53:03.502Z,6.40
2023-04-19T19:55:31.316Z,6.50
2023-04-19T19:58:26.307Z,6.18
2023-04-19T20:00:55.412Z,6.55
2023-04-19T20:03:36.151Z,6.75
2023-04-19T20:08:43.891Z,6.95
2023-04-19T20:11:13.190Z,6.38
2023-04-19T20:13:42.781Z,6.35
2023-04-19T20:16:11.510Z,6.63
2023-04-19T20:18:40.063Z,5.88
2023-04-19T20:21:10.282Z,6.03
2023-04-19T20:23:40.981Z,6.03
2023-04-19T20:26:09.001Z,6.30
2023-04-19T20:28:37.196Z,5.97
2023-04-19T20:31:05.744Z,6.22
2023-04-19T20:33:33.984Z,5.70
2023-04-19T20:36:03.180Z,6.28
2023-04-19T20:38:34.760Z,7.63
2023-04-19T20:41:03.252Z,8.35
2023-04-19T20:43:30.929Z,7.75
2023-04-19T20:45:59.530Z,8.50
2023-04-19T20:48:28.768Z,7.30
2023-04-19T20:50:56.800Z,8.30
2023-04-19T20:53:25.176Z,7.15
2023-04-19T20:55:53.276Z,8.02
2023-04-19T20:58:20.933Z,7.25
2023-04-19T21:00:49.961Z,7.03
2023-04-19T21:03:20.061Z,7.32
2023-04-19T21:05:47.602Z,6.93
2023-04-19T21:08:16.138Z,6.60
2023-04-19T21:10:43.263Z,6.97
2023-04-19T21:13:10.650Z,5.95
2023-04-19T21:15:37.902Z,7.38
2023-04-19T21:18:05.160Z,7.45
2023-04-19T21:20:33.876Z,7.40
2023-04-19T21:23:02.024Z,7.63
2023-04-19T21:25:29.107Z,7.88
2023-04-19T21:27:56.158Z,7.13
2023-04-19T21:30:23.785Z,7.70
2023-04-19T21:32:51.005Z,7.85
2023-04-19T21:35:18.729Z,7.70
2023-04-19T21:37:46.001Z,8.07
2023-04-19T21:40:13.332Z,8.30
2023-04-19T21:42:40.466Z,7.63
2023-04-19T21:45:08.407Z,8.25
2023-04-19T21:47:35.631Z,7.80
2023-04-19T21:50:03.416Z,7.97
2023-04-19T21:52:30.648Z,8.25
2023-04-19T21:54:57.851Z,8.88
2023-04-19T21:57:26.940Z,7.93
2023-04-19T21:59:54.255Z,8.18
2023-04-19T22:02:21.445Z,7.07
2023-04-19T22:04:49.901Z,8.32
2023-04-19T22:07:19.727Z,8.23
2023-04-19T22:09:46.824Z,7.93
2023-04-19T22:12:13.911Z,7.97
2023-04-19T22:14:41.629Z,7.60
2023-04-19T22:17:09.086Z,7.22
2023-04-19T22:19:36.187Z,8.50
2023-04-19T22:22:03.295Z,7.55
2023-04-19T22:24:30.423Z,7.22
2023-04-19T22:26:57.576Z,7.45
2023-04-19T22:29:24.827Z,8.15
2023-04-19T22:31:51.934Z,7.13
2023-04-19T22:34:19.062Z,7.53
2023-04-19T22:36:46.173Z,7.43
2023-04-19T22:39:13.930Z,7.95
2023-04-19T22:41:41.105Z,8.30
2023-04-19T22:44:08.229Z,7.75
2023-04-19T22:46:36.957Z,7.90
2023-04-19T22:49:04.153Z,7.72
2023-04-19T22:51:31.404Z,7.82
2023-04-19T22:53:58.815Z,8.25
2023-04-19T22:56:25.910Z,7.75
2023-04-19T22:58:52.972Z,7.43
2023-04-19T23:01:20.102Z,8.00
2023-04-19T23:03:47.252Z,8.00
2023-04-19T23:06:14.754Z,8.10
2023-04-19T23:08:41.833Z,7.93
2023-04-19T23:11:10.160Z,8.13
2023-04-19T23:13:41.391Z,7.38
2023-04-19T23:16:13.158Z,7.93
2023-04-19T23:18:40.394Z,7.35
2023-04-19T23:21:07.614Z,7.55
2023-04-19T23:23:34.854Z,7.80
2023-04-19T23:26:01.930Z,7.82
2023-04-19T23:28:29.303Z,7.93
2023-04-19T23:30:56.452Z,8.32
2023-04-19T23:33:23.647Z,8.00
2023-04-19T23:35:51.725Z,8.18
2023-04-19T23:38:19.280Z,7.68
2023-04-19T23:40:46.588Z,8.00
2023-04-19T23:43:13.653Z,8.15
2023-04-19T23:45:40.801Z,8.35
2023-04-19T23:48:07.879Z,7.78
2023-04-19T23:50:35.023Z,7.50
2023-04-19T23:53:03.205Z,7.85
2023-04-19T23:55:30.415Z,8.10
2023-04-19T23:57:57.510Z,8.45
